sensor_id;sensor_type;location;lat;lon;timestamp;P1;durP1;ratioP1;P2;durP2;ratioP2
20623;SDS011;10471;42.736;23.346;2023-03-23T00:00:57;115.30;;;55.83;;
20623;SDS011;10471;42.736;23.346;2023-03-23T00:03:23;105.83;;;53.93;;
20623;SDS011;10471;42.736;23.346;2023-03-23T00:05:51;109.67;;;55.20;;
20623;SDS011;10471;42.736;23.346;2023-03-23T00:08:17;103.83;;;55.50;;
20623;SDS011;10471;42.736;23.346;2023-03-23T00:10:47;103.43;;;53.67;;
20623;SDS011;10471;42.736;23.346;2023-03-23T00:13:22;98.87;;;51.33;;
20623;SDS011;10471;42.736;23.346;2023-03-23T00:15:49;89.33;;;48.67;;
20623;SDS011;10471;42.736;23.346;2023-03-23T00:18:17;80.27;;;42.40;;
20623;SDS011;10471;42.736;23.346;2023-03-23T00:20:46;82.77;;;43.57;;
20623;SDS011;10471;42.736;23.346;2023-03-23T00:23:14;74.87;;;39.40;;
20623;SDS011;10471;42.736;23.346;2023-03-23T00:25:48;74.17;;;39.90;;
20623;SDS011;10471;42.736;23.346;2023-03-23T00:28:16;73.03;;;37.70;;
20623;SDS011;10471;42.736;23.346;2023-03-23T00:30:42;75.40;;;40.53;;
20623;SDS011;10471;42.736;23.346;2023-03-23T00:33:09;72.40;;;39.63;;
20623;SDS011;10471;42.736;23.346;2023-03-23T00:35:38;69.43;;;35.90;;
20623;SDS011;10471;42.736;23.346;2023-03-23T00:38:04;67.33;;;37.10;;
20623;SDS011;10471;42.736;23.346;2023-03-23T00:40:30;64.00;;;33.67;;
20623;SDS011;10471;42.736;23.346;2023-03-23T00:42:56;73.27;;;37.17;;
20623;SDS011;10471;42.736;23.346;2023-03-23T00:45:21;65.93;;;35.47;;
20623;SDS011;10471;42.736;23.346;2023-03-23T00:47:49;61.60;;;34.33;;
20623;SDS011;10471;42.736;23.346;2023-03-23T00:50:15;57.20;;;32.40;;
20623;SDS011;10471;42.736;23.346;2023-03-23T00:52:42;58.87;;;31.77;;
20623;SDS011;10471;42.736;23.346;2023-03-23T00:55:08;55.43;;;31.00;;
20623;SDS011;10471;42.736;23.346;2023-03-23T00:57:34;45.33;;;29.40;;
20623;SDS011;10471;42.736;23.346;2023-03-23T01:00:00;51.93;;;30.83;;
20623;SDS011;10471;42.736;23.346;2023-03-23T01:02:25;50.53;;;30.87;;
20623;SDS011;10471;42.736;23.346;2023-03-23T01:04:51;53.93;;;31.53;;
20623;SDS011;10471;42.736;23.346;2023-03-23T01:07:17;57.73;;;33.40;;
20623;SDS011;10471;42.736;23.346;2023-03-23T01:09:45;59.03;;;36.47;;
20623;SDS011;10471;42.736;23.346;2023-03-23T01:12:11;65.47;;;38.27;;
20623;SDS011;10471;42.736;23.346;2023-03-23T01:14:37;65.80;;;37.80;;
20623;SDS011;10471;42.736;23.346;2023-03-23T01:17:03;64.27;;;36.23;;
20623;SDS011;10471;42.736;23.346;2023-03-23T01:19:28;60.97;;;36.57;;
20623;SDS011;10471;42.736;23.346;2023-03-23T01:21:54;68.90;;;37.53;;
20623;SDS011;10471;42.736;23.346;2023-03-23T01:24:19;74.97;;;40.50;;
20623;SDS011;10471;42.736;23.346;2023-03-23T01:26:45;71.47;;;40.97;;
20623;SDS011;10471;42.736;23.346;2023-03-23T01:29:10;72.17;;;39.57;;
20623;SDS011;10471;42.736;23.346;2023-03-23T01:31:36;72.20;;;40.70;;
20623;SDS011;10471;42.736;23.346;2023-03-23T01:34:02;95.73;;;46.10;;
20623;SDS011;10471;42.736;23.346;2023-03-23T01:36:29;77.70;;;42.33;;
20623;SDS011;10471;42.736;23.346;2023-03-23T01:38:57;77.43;;;41.00;;
20623;SDS011;10471;42.736;23.346;2023-03-23T01:41:25;77.03;;;42.23;;
20623;SDS011;10471;42.736;23.346;2023-03-23T01:46:29;81.50;;;43.10;;
20623;SDS011;10471;42.736;23.346;2023-03-23T01:49:03;79.73;;;43.23;;
20623;SDS011;10471;42.736;23.346;2023-03-23T01:51:34;76.20;;;39.43;;
20623;SDS011;10471;42.736;23.346;2023-03-23T01:54:03;72.17;;;39.20;;
20623;SDS011;10471;42.736;23.346;2023-03-23T01:56:33;64.03;;;36.27;;
20623;SDS011;10471;42.736;23.346;2023-03-23T01:59:05;65.53;;;35.97;;
20623;SDS011;10471;42.736;23.346;2023-03-23T02:01:32;68.13;;;38.07;;
20623;SDS011;10471;42.736;23.346;2023-03-23T02:04:03;68.07;;;36.77;;
20623;SDS011;10471;42.736;23.346;2023-03-23T02:06:29;76.30;;;39.53;;
20623;SDS011;10471;42.736;23.346;2023-03-23T02:08:55;58.90;;;32.87;;
20623;SDS011;10471;42.736;23.346;2023-03-23T02:11:21;64.70;;;34.50;;
20623;SDS011;10471;42.736;23.346;2023-03-23T02:13:47;57.97;;;32.03;;
20623;SDS011;10471;42.736;23.346;2023-03-23T02:21:34;51.07;;;29.67;;
20623;SDS011;10471;42.736;23.346;2023-03-23T02:27:14;49.03;;;26.67;;
20623;SDS011;10471;42.736;23.346;2023-03-23T02:34:46;38.93;;;23.57;;
20623;SDS011;10471;42.736;23.346;2023-03-23T02:37:21;43.40;;;24.50;;
20623;SDS011;10471;42.736;23.346;2023-03-23T02:39:54;40.03;;;24.10;;
20623;SDS011;10471;42.736;23.346;2023-03-23T02:42:25;43.17;;;25.63;;
20623;SDS011;10471;42.736;23.346;2023-03-23T02:44:54;46.37;;;25.03;;
20623;SDS011;10471;42.736;23.346;2023-03-23T02:47:23;47.57;;;25.90;;
20623;SDS011;10471;42.736;23.346;2023-03-23T02:49:54;56.50;;;27.47;;
20623;SDS011;10471;42.736;23.346;2023-03-23T02:52:23;96.90;;;42.27;;
20623;SDS011;10471;42.736;23.346;2023-03-23T02:54:52;76.83;;;35.70;;
20623;SDS011;10471;42.736;23.346;2023-03-23T02:57:19;74.70;;;33.40;;
20623;SDS011;10471;42.736;23.346;2023-03-23T02:59:46;138.83;;;35.33;;
20623;SDS011;10471;42.736;23.346;2023-03-23T03:02:18;137.97;;;37.27;;
20623;SDS011;10471;42.736;23.346;2023-03-23T03:04:52;140.63;;;33.00;;
20623;SDS011;10471;42.736;23.346;2023-03-23T03:10:22;103.43;;;35.37;;
20623;SDS011;10471;42.736;23.346;2023-03-23T03:13:11;116.73;;;35.00;;
20623;SDS011;10471;42.736;23.346;2023-03-23T03:15:53;91.00;;;35.53;;
20623;SDS011;10471;42.736;23.346;2023-03-23T03:18:26;90.17;;;32.27;;
20623;SDS011;10471;42.736;23.346;2023-03-23T03:20:59;68.13;;;27.30;;
20623;SDS011;10471;42.736;23.346;2023-03-23T03:23:29;66.57;;;28.37;;
20623;SDS011;10471;42.736;23.346;2023-03-23T03:25:56;88.90;;;29.63;;
20623;SDS011;10471;42.736;23.346;2023-03-23T03:28:23;73.73;;;29.97;;
20623;SDS011;10471;42.736;23.346;2023-03-23T03:30:55;109.10;;;37.27;;
20623;SDS011;10471;42.736;23.346;2023-03-23T03:33:25;77.23;;;31.03;;
20623;SDS011;10471;42.736;23.346;2023-03-23T03:35:55;57.83;;;30.07;;
20623;SDS011;10471;42.736;23.346;2023-03-23T03:38:23;64.23;;;32.70;;
20623;SDS011;10471;42.736;23.346;2023-03-23T03:40:49;61.80;;;33.03;;
20623;SDS011;10471;42.736;23.346;2023-03-23T03:43:15;56.10;;;31.37;;
20623;SDS011;10471;42.736;23.346;2023-03-23T03:45:40;64.80;;;30.70;;
20623;SDS011;10471;42.736;23.346;2023-03-23T03:48:07;67.63;;;30.93;;
20623;SDS011;10471;42.736;23.346;2023-03-23T03:50:32;64.63;;;29.23;;
20623;SDS011;10471;42.736;23.346;2023-03-23T03:52:58;69.67;;;29.90;;
20623;SDS011;10471;42.736;23.346;2023-03-23T03:55:23;59.93;;;30.77;;
20623;SDS011;10471;42.736;23.346;2023-03-23T03:57:49;66.30;;;32.97;;
20623;SDS011;10471;42.736;23.346;2023-03-23T04:00:14;62.93;;;34.70;;
20623;SDS011;10471;42.736;23.346;2023-03-23T04:02:44;70.73;;;36.33;;
20623;SDS011;10471;42.736;23.346;2023-03-23T04:05:16;103.43;;;54.07;;
20623;SDS011;10471;42.736;23.346;2023-03-23T04:07:43;131.40;;;63.17;;
20623;SDS011;10471;42.736;23.346;2023-03-23T04:10:09;99.03;;;52.63;;
20623;SDS011;10471;42.736;23.346;2023-03-23T04:12:36;98.50;;;59.57;;
20623;SDS011;10471;42.736;23.346;2023-03-23T04:15:02;96.67;;;49.67;;
20623;SDS011;10471;42.736;23.346;2023-03-23T04:17:27;132.83;;;67.00;;
20623;SDS011;10471;42.736;23.346;2023-03-23T04:19:53;107.93;;;47.93;;
20623;SDS011;10471;42.736;23.346;2023-03-23T04:22:24;119.27;;;45.53;;
20623;SDS011;10471;42.736;23.346;2023-03-23T04:24:54;162.13;;;49.23;;
20623;SDS011;10471;42.736;23.346;2023-03-23T04:27:25;165.60;;;53.73;;
20623;SDS011;10471;42.736;23.346;2023-03-23T04:29:53;295.07;;;95.27;;
20623;SDS011;10471;42.736;23.346;2023-03-23T04:32:23;325.47;;;133.97;;
20623;SDS011;10471;42.736;23.346;2023-03-23T04:34:49;436.43;;;181.40;;
20623;SDS011;10471;42.736;23.346;2023-03-23T04:37:15;355.17;;;146.30;;
20623;SDS011;10471;42.736;23.346;2023-03-23T04:39:41;238.03;;;94.93;;
20623;SDS011;10471;42.736;23.346;2023-03-23T04:42:10;168.97;;;74.60;;
20623;SDS011;10471;42.736;23.346;2023-03-23T04:44:36;258.47;;;126.50;;
20623;SDS011;10471;42.736;23.346;2023-03-23T04:47:01;167.93;;;82.90;;
20623;SDS011;10471;42.736;23.346;2023-03-23T04:49:27;122.53;;;58.17;;
20623;SDS011;10471;42.736;23.346;2023-03-23T04:51:55;104.53;;;52.97;;
20623;SDS011;10471;42.736;23.346;2023-03-23T04:54:21;88.03;;;44.53;;
20623;SDS011;10471;42.736;23.346;2023-03-23T04:56:47;80.87;;;41.87;;
20623;SDS011;10471;42.736;23.346;2023-03-23T04:59:12;86.23;;;44.20;;
20623;SDS011;10471;42.736;23.346;2023-03-23T05:01:38;126.27;;;71.33;;
20623;SDS011;10471;42.736;23.346;2023-03-23T05:04:05;130.77;;;67.67;;
20623;SDS011;10471;42.736;23.346;2023-03-23T05:06:30;121.17;;;60.37;;
20623;SDS011;10471;42.736;23.346;2023-03-23T05:08:56;92.60;;;49.93;;
20623;SDS011;10471;42.736;23.346;2023-03-23T05:11:21;120.23;;;62.57;;
20623;SDS011;10471;42.736;23.346;2023-03-23T05:13:47;94.33;;;50.53;;
20623;SDS011;10471;42.736;23.346;2023-03-23T05:16:12;84.03;;;46.27;;
20623;SDS011;10471;42.736;23.346;2023-03-23T05:18:38;87.70;;;46.20;;
20623;SDS011;10471;42.736;23.346;2023-03-23T05:21:03;78.97;;;42.73;;
20623;SDS011;10471;42.736;23.346;2023-03-23T05:23:29;86.97;;;45.60;;
20623;SDS011;10471;42.736;23.346;2023-03-23T05:25:56;80.00;;;42.37;;
20623;SDS011;10471;42.736;23.346;2023-03-23T05:28:28;100.07;;;51.57;;
20623;SDS011;10471;42.736;23.346;2023-03-23T05:30:55;77.87;;;44.77;;
20623;SDS011;10471;42.736;23.346;2023-03-23T05:33:21;88.47;;;50.17;;
20623;SDS011;10471;42.736;23.346;2023-03-23T05:35:47;91.30;;;48.50;;
20623;SDS011;10471;42.736;23.346;2023-03-23T05:38:12;76.87;;;42.97;;
20623;SDS011;10471;42.736;23.346;2023-03-23T05:40:39;72.63;;;40.53;;
20623;SDS011;10471;42.736;23.346;2023-03-23T05:43:06;82.93;;;45.27;;
20623;SDS011;10471;42.736;23.346;2023-03-23T05:45:32;76.23;;;42.50;;
20623;SDS011;10471;42.736;23.346;2023-03-23T05:47:58;85.80;;;47.67;;
20623;SDS011;10471;42.736;23.346;2023-03-23T05:50:24;88.77;;;51.40;;
20623;SDS011;10471;42.736;23.346;2023-03-23T05:52:50;78.80;;;42.83;;
20623;SDS011;10471;42.736;23.346;2023-03-23T05:55:16;79.70;;;43.30;;
20623;SDS011;10471;42.736;23.346;2023-03-23T05:57:41;70.80;;;40.73;;
20623;SDS011;10471;42.736;23.346;2023-03-23T06:00:07;69.60;;;37.87;;
20623;SDS011;10471;42.736;23.346;2023-03-23T06:02:39;73.53;;;41.83;;
20623;SDS011;10471;42.736;23.346;2023-03-23T06:05:05;66.77;;;34.20;;
20623;SDS011;10471;42.736;23.346;2023-03-23T06:07:31;70.67;;;37.40;;
20623;SDS011;10471;42.736;23.346;2023-03-23T06:09:57;92.47;;;33.33;;
20623;SDS011;10471;42.736;23.346;2023-03-23T06:12:22;100.57;;;38.03;;
20623;SDS011;10471;42.736;23.346;2023-03-23T06:14:49;104.10;;;36.13;;
20623;SDS011;10471;42.736;23.346;2023-03-23T06:17:15;103.83;;;40.07;;
20623;SDS011;10471;42.736;23.346;2023-03-23T06:19:42;74.37;;;33.27;;
20623;SDS011;10471;42.736;23.346;2023-03-23T06:22:08;83.00;;;35.97;;
20623;SDS011;10471;42.736;23.346;2023-03-23T06:24:34;73.23;;;36.43;;
20623;SDS011;10471;42.736;23.346;2023-03-23T06:26:59;83.93;;;36.27;;
20623;SDS011;10471;42.736;23.346;2023-03-23T06:29:26;72.43;;;36.60;;
20623;SDS011;10471;42.736;23.346;2023-03-23T06:31:52;62.93;;;31.57;;
20623;SDS011;10471;42.736;23.346;2023-03-23T06:34:23;60.00;;;32.37;;
20623;SDS011;10471;42.736;23.346;2023-03-23T06:36:49;57.87;;;31.30;;
20623;SDS011;10471;42.736;23.346;2023-03-23T06:39:14;56.77;;;30.73;;
20623;SDS011;10471;42.736;23.346;2023-03-23T06:41:40;57.43;;;31.57;;
20623;SDS011;10471;42.736;23.346;2023-03-23T06:44:06;61.17;;;32.67;;
20623;SDS011;10471;42.736;23.346;2023-03-23T06:46:33;55.07;;;31.57;;
20623;SDS011;10471;42.736;23.346;2023-03-23T06:48:58;62.60;;;31.63;;
20623;SDS011;10471;42.736;23.346;2023-03-23T06:51:24;54.30;;;30.87;;
20623;SDS011;10471;42.736;23.346;2023-03-23T06:53:49;57.13;;;31.30;;
20623;SDS011;10471;42.736;23.346;2023-03-23T06:56:15;57.20;;;32.47;;
20623;SDS011;10471;42.736;23.346;2023-03-23T06:58:41;60.40;;;33.63;;
20623;SDS011;10471;42.736;23.346;2023-03-23T07:01:07;58.37;;;33.30;;
20623;SDS011;10471;42.736;23.346;2023-03-23T07:03:34;59.50;;;33.90;;
20623;SDS011;10471;42.736;23.346;2023-03-23T07:06:01;55.07;;;33.13;;
20623;SDS011;10471;42.736;23.346;2023-03-23T07:08:28;56.40;;;31.90;;
20623;SDS011;10471;42.736;23.346;2023-03-23T07:10:54;51.90;;;31.97;;
20623;SDS011;10471;42.736;23.346;2023-03-23T07:13:20;52.17;;;31.93;;
20623;SDS011;10471;42.736;23.346;2023-03-23T07:15:46;49.50;;;32.30;;
20623;SDS011;10471;42.736;23.346;2023-03-23T07:18:13;51.63;;;32.00;;
20623;SDS011;10471;42.736;23.346;2023-03-23T07:20:38;45.40;;;30.23;;
20623;SDS011;10471;42.736;23.346;2023-03-23T07:23:04;50.83;;;31.97;;
20623;SDS011;10471;42.736;23.346;2023-03-23T07:25:32;50.33;;;31.37;;
20623;SDS011;10471;42.736;23.346;2023-03-23T07:28:02;49.77;;;31.17;;
20623;SDS011;10471;42.736;23.346;2023-03-23T07:30:28;46.77;;;30.70;;
20623;SDS011;10471;42.736;23.346;2023-03-23T07:32:55;48.50;;;31.10;;
20623;SDS011;10471;42.736;23.346;2023-03-23T07:35:22;49.07;;;30.90;;
20623;SDS011;10471;42.736;23.346;2023-03-23T07:37:48;52.93;;;32.03;;
20623;SDS011;10471;42.736;23.346;2023-03-23T07:40:14;44.20;;;29.37;;
20623;SDS011;10471;42.736;23.346;2023-03-23T07:42:42;47.77;;;30.40;;
20623;SDS011;10471;42.736;23.346;2023-03-23T07:45:09;45.53;;;31.17;;
20623;SDS011;10471;42.736;23.346;2023-03-23T07:47:36;43.20;;;29.67;;
20623;SDS011;10471;42.736;23.346;2023-03-23T07:50:02;70.63;;;47.43;;
20623;SDS011;10471;42.736;23.346;2023-03-23T07:52:27;51.57;;;33.27;;
20623;SDS011;10471;42.736;23.346;2023-03-23T07:54:53;43.00;;;29.13;;
20623;SDS011;10471;42.736;23.346;2023-03-23T07:57:18;44.47;;;29.00;;
20623;SDS011;10471;42.736;23.346;2023-03-23T07:59:43;47.63;;;30.13;;
20623;SDS011;10471;42.736;23.346;2023-03-23T08:02:09;46.90;;;29.90;;
20623;SDS011;10471;42.736;23.346;2023-03-23T08:04:35;45.77;;;29.50;;
20623;SDS011;10471;42.736;23.346;2023-03-23T08:07:02;40.70;;;28.10;;
20623;SDS011;10471;42.736;23.346;2023-03-23T08:09:29;41.70;;;28.87;;
20623;SDS011;10471;42.736;23.346;2023-03-23T08:11:55;43.80;;;29.37;;
20623;SDS011;10471;42.736;23.346;2023-03-23T08:14:20;43.83;;;27.70;;
20623;SDS011;10471;42.736;23.346;2023-03-23T08:16:46;40.20;;;26.23;;
20623;SDS011;10471;42.736;23.346;2023-03-23T08:19:13;38.57;;;25.93;;
20623;SDS011;10471;42.736;23.346;2023-03-23T08:21:38;37.90;;;25.77;;
20623;SDS011;10471;42.736;23.346;2023-03-23T08:24:04;35.67;;;24.20;;
20623;SDS011;10471;42.736;23.346;2023-03-23T08:26:30;33.73;;;22.67;;
20623;SDS011;10471;42.736;23.346;2023-03-23T08:28:55;34.47;;;22.03;;
20623;SDS011;10471;42.736;23.346;2023-03-23T08:31:22;30.90;;;20.57;;
20623;SDS011;10471;42.736;23.346;2023-03-23T08:33:48;27.23;;;19.27;;
20623;SDS011;10471;42.736;23.346;2023-03-23T08:36:13;25.63;;;19.03;;
20623;SDS011;10471;42.736;23.346;2023-03-23T08:38:39;30.57;;;21.20;;
20623;SDS011;10471;42.736;23.346;2023-03-23T08:41:05;26.77;;;18.73;;
20623;SDS011;10471;42.736;23.346;2023-03-23T08:43:32;26.80;;;19.67;;
20623;SDS011;10471;42.736;23.346;2023-03-23T08:45:58;30.70;;;22.37;;
20623;SDS011;10471;42.736;23.346;2023-03-23T08:48:24;33.93;;;23.70;;
20623;SDS011;10471;42.736;23.346;2023-03-23T08:50:49;36.77;;;24.33;;
20623;SDS011;10471;42.736;23.346;2023-03-23T08:53:17;31.43;;;23.23;;
20623;SDS011;10471;42.736;23.346;2023-03-23T08:55:43;29.43;;;20.33;;
20623;SDS011;10471;42.736;23.346;2023-03-23T08:58:09;23.07;;;16.50;;
20623;SDS011;10471;42.736;23.346;2023-03-23T09:00:34;24.27;;;16.90;;
20623;SDS011;10471;42.736;23.346;2023-03-23T09:03:00;23.07;;;16.13;;
20623;SDS011;10471;42.736;23.346;2023-03-23T09:05:27;23.50;;;17.57;;
20623;SDS011;10471;42.736;23.346;2023-03-23T09:07:55;24.00;;;17.10;;
20623;SDS011;10471;42.736;23.346;2023-03-23T09:10:24;23.33;;;15.73;;
20623;SDS011;10471;42.736;23.346;2023-03-23T09:12:51;18.50;;;15.23;;
20623;SDS011;10471;42.736;23.346;2023-03-23T09:15:18;21.40;;;15.87;;
20623;SDS011;10471;42.736;23.346;2023-03-23T09:17:45;18.87;;;13.60;;
20623;SDS011;10471;42.736;23.346;2023-03-23T09:20:13;17.23;;;13.30;;
20623;SDS011;10471;42.736;23.346;2023-03-23T09:22:42;16.03;;;12.70;;
20623;SDS011;10471;42.736;23.346;2023-03-23T09:25:10;26.03;;;15.57;;
20623;SDS011;10471;42.736;23.346;2023-03-23T09:27:40;22.37;;;14.97;;
20623;SDS011;10471;42.736;23.346;2023-03-23T09:30:11;14.90;;;9.40;;
20623;SDS011;10471;42.736;23.346;2023-03-23T09:32:37;13.07;;;10.23;;
20623;SDS011;10471;42.736;23.346;2023-03-23T09:35:04;19.33;;;12.70;;
20623;SDS011;10471;42.736;23.346;2023-03-23T09:37:33;12.10;;;9.83;;
20623;SDS011;10471;42.736;23.346;2023-03-23T09:40:00;14.70;;;10.30;;
20623;SDS011;10471;42.736;23.346;2023-03-23T09:45:09;14.83;;;11.07;;
20623;SDS011;10471;42.736;23.346;2023-03-23T09:50:34;9.97;;;7.90;;
20623;SDS011;10471;42.736;23.346;2023-03-23T09:53:09;11.33;;;8.20;;
20623;SDS011;10471;42.736;23.346;2023-03-23T09:55:41;11.40;;;8.47;;
20623;SDS011;10471;42.736;23.346;2023-03-23T10:00:58;9.07;;;8.00;;
20623;SDS011;10471;42.736;23.346;2023-03-23T10:03:39;11.47;;;8.90;;
20623;SDS011;10471;42.736;23.346;2023-03-23T10:06:07;13.30;;;9.00;;
20623;SDS011;10471;42.736;23.346;2023-03-23T10:08:35;12.93;;;9.30;;
20623;SDS011;10471;42.736;23.346;2023-03-23T10:16:42;11.20;;;8.50;;
20623;SDS011;10471;42.736;23.346;2023-03-23T10:21:51;10.90;;;8.27;;
20623;SDS011;10471;42.736;23.346;2023-03-23T10:24:21;11.10;;;9.20;;
20623;SDS011;10471;42.736;23.346;2023-03-23T10:29:46;13.50;;;10.03;;
20623;SDS011;10471;42.736;23.346;2023-03-23T10:32:50;13.20;;;10.63;;
20623;SDS011;10471;42.736;23.346;2023-03-23T10:35:12;12.53;;;9.37;;
20623;SDS011;10471;42.736;23.346;2023-03-23T10:37:45;12.97;;;10.03;;
20623;SDS011;10471;42.736;23.346;2023-03-23T10:40:20;12.60;;;9.90;;
20623;SDS011;10471;42.736;23.346;2023-03-23T10:42:50;12.87;;;9.00;;
20623;SDS011;10471;42.736;23.346;2023-03-23T10:45:24;12.43;;;9.40;;
20623;SDS011;10471;42.736;23.346;2023-03-23T10:47:54;10.97;;;9.40;;
20623;SDS011;10471;42.736;23.346;2023-03-23T10:50:25;13.20;;;9.43;;
20623;SDS011;10471;42.736;23.346;2023-03-23T10:52:54;10.60;;;8.90;;
20623;SDS011;10471;42.736;23.346;2023-03-23T10:55:23;10.40;;;9.20;;
20623;SDS011;10471;42.736;23.346;2023-03-23T10:58:26;12.47;;;9.53;;
20623;SDS011;10471;42.736;23.346;2023-03-23T11:00:54;12.17;;;9.77;;
20623;SDS011;10471;42.736;23.346;2023-03-23T11:03:23;10.73;;;9.10;;
20623;SDS011;10471;42.736;23.346;2023-03-23T11:05:55;11.20;;;9.43;;
20623;SDS011;10471;42.736;23.346;2023-03-23T11:08:24;13.37;;;9.23;;
20623;SDS011;10471;42.736;23.346;2023-03-23T11:13:37;10.77;;;8.40;;
20623;SDS011;10471;42.736;23.346;2023-03-23T11:16:05;9.27;;;8.23;;
20623;SDS011;10471;42.736;23.346;2023-03-23T11:18:39;11.00;;;8.73;;
20623;SDS011;10471;42.736;23.346;2023-03-23T11:21:08;9.93;;;8.30;;
20623;SDS011;10471;42.736;23.346;2023-03-23T11:23:37;9.27;;;8.20;;
20623;SDS011;10471;42.736;23.346;2023-03-23T11:31:44;10.83;;;8.80;;
20623;SDS011;10471;42.736;23.346;2023-03-23T11:34:14;9.13;;;8.10;;
20623;SDS011;10471;42.736;23.346;2023-03-23T11:36:52;9.00;;;7.37;;
20623;SDS011;10471;42.736;23.346;2023-03-23T11:41:51;8.83;;;7.80;;
20623;SDS011;10471;42.736;23.346;2023-03-23T11:44:17;10.23;;;7.77;;
20623;SDS011;10471;42.736;23.346;2023-03-23T11:49:37;9.33;;;7.60;;
20623;SDS011;10471;42.736;23.346;2023-03-23T11:52:14;8.20;;;6.97;;
20623;SDS011;10471;42.736;23.346;2023-03-23T11:54:52;8.67;;;6.97;;
20623;SDS011;10471;42.736;23.346;2023-03-23T11:57:27;8.40;;;7.17;;
20623;SDS011;10471;42.736;23.346;2023-03-23T11:59:55;8.87;;;7.10;;
20623;SDS011;10471;42.736;23.346;2023-03-23T12:10:41;10.10;;;7.70;;
20623;SDS011;10471;42.736;23.346;2023-03-23T12:13:25;9.13;;;7.10;;
20623;SDS011;10471;42.736;23.346;2023-03-23T12:33:39;8.00;;;6.77;;
20623;SDS011;10471;42.736;23.346;2023-03-23T12:36:44;8.40;;;7.50;;
20623;SDS011;10471;42.736;23.346;2023-03-23T12:44:45;8.00;;;7.20;;
20623;SDS011;10471;42.736;23.346;2023-03-23T12:47:18;11.47;;;8.17;;
20623;SDS011;10471;42.736;23.346;2023-03-23T12:50:05;9.03;;;7.37;;
20623;SDS011;10471;42.736;23.346;2023-03-23T12:52:41;7.17;;;6.43;;
20623;SDS011;10471;42.736;23.346;2023-03-23T12:55:15;8.43;;;7.20;;
20623;SDS011;10471;42.736;23.346;2023-03-23T12:58:10;7.50;;;6.63;;
20623;SDS011;10471;42.736;23.346;2023-03-23T13:03:23;7.80;;;7.00;;
20623;SDS011;10471;42.736;23.346;2023-03-23T13:06:07;8.60;;;7.00;;
20623;SDS011;10471;42.736;23.346;2023-03-23T13:08:45;7.73;;;6.57;;
20623;SDS011;10471;42.736;23.346;2023-03-23T13:11:18;7.80;;;7.00;;
20623;SDS011;10471;42.736;23.346;2023-03-23T13:16:24;7.53;;;6.63;;
20623;SDS011;10471;42.736;23.346;2023-03-23T13:21:50;7.27;;;6.57;;
20623;SDS011;10471;42.736;23.346;2023-03-23T13:24:26;7.23;;;6.40;;
20623;SDS011;10471;42.736;23.346;2023-03-23T13:26:55;7.63;;;6.30;;
20623;SDS011;10471;42.736;23.346;2023-03-23T13:29:26;7.70;;;6.47;;
20623;SDS011;10471;42.736;23.346;2023-03-23T13:31:52;7.93;;;6.70;;
20623;SDS011;10471;42.736;23.346;2023-03-23T13:34:36;7.40;;;6.70;;
20623;SDS011;10471;42.736;23.346;2023-03-23T13:37:03;8.07;;;7.23;;
20623;SDS011;10471;42.736;23.346;2023-03-23T13:42:24;8.87;;;7.00;;
20623;SDS011;10471;42.736;23.346;2023-03-23T13:54:48;7.63;;;6.47;;
20623;SDS011;10471;42.736;23.346;2023-03-23T14:05:35;8.43;;;6.97;;
20623;SDS011;10471;42.736;23.346;2023-03-23T14:10:35;7.73;;;6.93;;
20623;SDS011;10471;42.736;23.346;2023-03-23T14:13:02;8.70;;;6.73;;
20623;SDS011;10471;42.736;23.346;2023-03-23T14:15:29;8.43;;;6.80;;
20623;SDS011;10471;42.736;23.346;2023-03-23T14:17:56;7.37;;;6.60;;
20623;SDS011;10471;42.736;23.346;2023-03-23T14:20:26;7.97;;;6.77;;
20623;SDS011;10471;42.736;23.346;2023-03-23T14:22:58;8.50;;;7.00;;
20623;SDS011;10471;42.736;23.346;2023-03-23T14:25:26;7.13;;;6.43;;
20623;SDS011;10471;42.736;23.346;2023-03-23T14:27:54;8.13;;;7.07;;
20623;SDS011;10471;42.736;23.346;2023-03-23T14:30:20;8.93;;;6.93;;
20623;SDS011;10471;42.736;23.346;2023-03-23T14:32:48;9.33;;;7.97;;
20623;SDS011;10471;42.736;23.346;2023-03-23T14:35:18;9.10;;;6.70;;
20623;SDS011;10471;42.736;23.346;2023-03-23T14:37:45;9.87;;;6.33;;
20623;SDS011;10471;42.736;23.346;2023-03-23T14:40:12;7.27;;;6.47;;
20623;SDS011;10471;42.736;23.346;2023-03-23T14:42:41;7.30;;;6.53;;
20623;SDS011;10471;42.736;23.346;2023-03-23T14:45:07;7.87;;;7.13;;
20623;SDS011;10471;42.736;23.346;2023-03-23T14:47:40;8.23;;;6.53;;
20623;SDS011;10471;42.736;23.346;2023-03-23T14:50:22;8.93;;;7.00;;
20623;SDS011;10471;42.736;23.346;2023-03-23T14:53:52;8.07;;;6.53;;
20623;SDS011;10471;42.736;23.346;2023-03-23T14:56:03;7.53;;;6.60;;
20623;SDS011;10471;42.736;23.346;2023-03-23T14:58:35;9.53;;;6.67;;
20623;SDS011;10471;42.736;23.346;2023-03-23T15:01:02;7.97;;;6.50;;
20623;SDS011;10471;42.736;23.346;2023-03-23T15:03:34;11.83;;;7.33;;
20623;SDS011;10471;42.736;23.346;2023-03-23T15:06:04;6.87;;;6.13;;
20623;SDS011;10471;42.736;23.346;2023-03-23T15:08:34;7.70;;;6.43;;
20623;SDS011;10471;42.736;23.346;2023-03-23T15:13:33;8.47;;;6.63;;
20623;SDS011;10471;42.736;23.346;2023-03-23T15:16:33;9.37;;;7.37;;
20623;SDS011;10471;42.736;23.346;2023-03-23T15:19:03;10.37;;;7.27;;
20623;SDS011;10471;42.736;23.346;2023-03-23T15:21:34;8.30;;;7.30;;
20623;SDS011;10471;42.736;23.346;2023-03-23T15:24:27;9.63;;;7.50;;
20623;SDS011;10471;42.736;23.346;2023-03-23T15:27:02;63.33;;;44.10;;
20623;SDS011;10471;42.736;23.346;2023-03-23T15:29:45;10.67;;;9.33;;
20623;SDS011;10471;42.736;23.346;2023-03-23T15:32:22;15.37;;;13.80;;
20623;SDS011;10471;42.736;23.346;2023-03-23T15:34:56;10.27;;;8.97;;
20623;SDS011;10471;42.736;23.346;2023-03-23T15:37:32;10.53;;;7.17;;
20623;SDS011;10471;42.736;23.346;2023-03-23T15:39:59;8.97;;;7.00;;
20623;SDS011;10471;42.736;23.346;2023-03-23T15:42:29;9.17;;;6.70;;
20623;SDS011;10471;42.736;23.346;2023-03-23T15:47:34;8.57;;;7.00;;
20623;SDS011;10471;42.736;23.346;2023-03-23T15:52:39;7.60;;;5.93;;
20623;SDS011;10471;42.736;23.346;2023-03-23T15:57:50;8.10;;;6.63;;
20623;SDS011;10471;42.736;23.346;2023-03-23T16:00:17;10.07;;;6.97;;
20623;SDS011;10471;42.736;23.346;2023-03-23T16:02:45;8.37;;;6.70;;
20623;SDS011;10471;42.736;23.346;2023-03-23T16:05:12;9.90;;;7.37;;
20623;SDS011;10471;42.736;23.346;2023-03-23T16:07:37;9.20;;;7.70;;
20623;SDS011;10471;42.736;23.346;2023-03-23T16:10:04;10.37;;;8.23;;
20623;SDS011;10471;42.736;23.346;2023-03-23T16:12:30;11.83;;;8.30;;
20623;SDS011;10471;42.736;23.346;2023-03-23T16:14:56;10.73;;;8.27;;
20623;SDS011;10471;42.736;23.346;2023-03-23T16:17:21;12.37;;;7.90;;
20623;SDS011;10471;42.736;23.346;2023-03-23T16:19:47;10.77;;;8.20;;
20623;SDS011;10471;42.736;23.346;2023-03-23T16:22:12;10.53;;;7.40;;
20623;SDS011;10471;42.736;23.346;2023-03-23T16:24:37;9.03;;;6.77;;
20623;SDS011;10471;42.736;23.346;2023-03-23T16:27:03;8.47;;;6.53;;
20623;SDS011;10471;42.736;23.346;2023-03-23T16:29:28;9.07;;;7.27;;